createdAt,value
2024-03-24T00:00:13.134Z,953.9678
2024-03-24T00:01:16.161Z,953.9711
2024-03-24T00:02:19.195Z,953.9683
2024-03-24T00:03:22.215Z,953.9739
2024-03-24T00:04:25.288Z,953.9611
2024-03-24T00:05:28.323Z,953.9595
2024-03-24T00:06:31.367Z,953.9422
2024-03-24T00:07:34.396Z,953.9506
2024-03-24T00:08:37.442Z,953.9500
2024-03-24T00:09:40.495Z,953.9344
2024-03-24T00:10:43.533Z,953.9294
2024-03-24T00:11:46.574Z,953.9200
2024-03-24T00:12:49.599Z,953.9166
2024-03-24T00:13:52.652Z,953.9150
2024-03-24T00:14:55.686Z,953.8734
2024-03-24T00:15:59.066Z,953.8467
2024-03-24T00:17:02.121Z,953.8272
2024-03-24T00:18:05.126Z,953.8011
2024-03-24T00:19:08.219Z,953.7645
2024-03-24T00:20:11.252Z,953.7416
2024-03-24T00:21:14.261Z,953.7411
2024-03-24T00:22:17.550Z,953.7534
2024-03-24T00:23:20.590Z,953.7550
2024-03-24T00:24:23.728Z,953.7328
2024-03-24T00:25:26.734Z,953.7411
2024-03-24T00:26:29.769Z,953.7444
2024-03-24T00:27:32.745Z,953.7455
2024-03-24T00:28:35.921Z,953.7433
2024-03-24T00:29:38.939Z,953.7278
2024-03-24T00:30:41.900Z,953.7178
2024-03-24T00:31:44.983Z,953.7217
2024-03-24T00:32:48.018Z,953.7300
2024-03-24T00:33:51.040Z,953.7056
2024-03-24T00:34:54.410Z,953.7145
2024-03-24T00:35:57.608Z,953.7089
2024-03-24T00:37:00.797Z,953.6900
2024-03-24T00:38:03.825Z,953.6600
2024-03-24T00:39:06.883Z,953.6450
2024-03-24T00:40:09.918Z,953.6278
2024-03-24T00:41:12.909Z,953.6022
2024-03-24T00:42:16.004Z,953.5684
2024-03-24T00:43:19.058Z,953.5428
2024-03-24T00:44:22.099Z,953.5161
2024-03-24T00:45:25.146Z,953.5189
2024-03-24T00:46:28.180Z,953.5400
2024-03-24T00:47:31.244Z,953.5283
2024-03-24T00:48:34.247Z,953.5072
2024-03-24T00:49:37.244Z,953.5106
2024-03-24T00:50:40.347Z,953.5005
2024-03-24T00:51:43.362Z,953.4850
2024-03-24T00:52:46.669Z,953.4722
2024-03-24T00:53:49.766Z,953.4522
2024-03-24T00:54:52.787Z,953.4067
2024-03-24T00:55:55.844Z,953.4189
2024-03-24T00:56:58.901Z,953.4172
2024-03-24T00:58:02.275Z,953.4316
2024-03-24T00:59:05.286Z,953.4044
2024-03-24T01:00:08.324Z,953.3945
2024-03-24T01:01:11.391Z,953.3500
2024-03-24T01:02:14.355Z,953.3433
2024-03-24T01:03:17.451Z,953.3039
2024-03-24T01:04:20.507Z,953.2944
2024-03-24T01:05:23.556Z,953.2628
2024-03-24T01:06:26.601Z,953.2484
2024-03-24T01:07:29.676Z,953.2522
2024-03-24T01:08:32.724Z,953.2428
2024-03-24T01:09:35.712Z,953.2378
2024-03-24T01:10:38.752Z,953.2089
2024-03-24T01:11:41.900Z,953.2045
2024-03-24T01:12:44.883Z,953.2034
2024-03-24T01:13:47.900Z,953.2272
2024-03-24T01:14:50.904Z,953.1917
2024-03-24T01:15:53.930Z,953.1967
2024-03-24T01:16:56.893Z,953.2333
2024-03-24T01:18:00.015Z,953.2222
2024-03-24T01:19:03.094Z,953.2194
2024-03-24T01:20:06.073Z,953.2206
2024-03-24T01:21:09.150Z,953.1895
2024-03-24T01:22:12.202Z,953.1750
2024-03-24T01:23:15.198Z,953.1678
2024-03-24T01:24:18.250Z,953.1339
2024-03-24T01:25:21.292Z,953.1633
2024-03-24T01:26:24.392Z,953.1650
2024-03-24T01:27:27.422Z,953.1183
2024-03-24T01:28:30.542Z,953.1189
2024-03-24T01:29:33.532Z,953.0911
2024-03-24T01:30:36.581Z,953.0634
2024-03-24T01:31:39.652Z,953.0706
2024-03-24T01:32:42.652Z,953.0722
2024-03-24T01:33:45.673Z,953.0772
2024-03-24T01:34:48.967Z,953.0528
2024-03-24T01:35:52.045Z,953.0217
2024-03-24T01:36:55.061Z,953.0045
2024-03-24T01:37:58.062Z,952.9955
2024-03-24T01:39:01.132Z,952.9989
2024-03-24T01:40:04.167Z,952.9883
2024-03-24T01:41:07.189Z,953.0016
2024-03-24T01:42:10.196Z,953.0011
2024-03-24T01:43:13.298Z,952.9833
2024-03-24T01:44:16.342Z,952.9789
2024-03-24T01:45:19.353Z,952.9689
2024-03-24T01:46:22.462Z,952.9255
2024-03-24T01:47:25.486Z,952.9006
2024-03-24T01:48:28.493Z,952.9044
2024-03-24T01:49:31.675Z,952.8784
2024-03-24T01:50:34.703Z,952.8322
2024-03-24T01:51:37.684Z,952.8456
2024-03-24T01:52:40.715Z,952.8272
2024-03-24T01:53:43.684Z,952.8394
2024-03-24T01:54:46.746Z,952.8367
2024-03-24T01:55:49.763Z,952.8128
2024-03-24T01:56:52.821Z,952.7978
2024-03-24T01:57:55.867Z,952.8122
2024-03-24T01:58:58.915Z,952.8494
2024-03-24T02:00:01.915Z,952.8472
2024-03-24T02:01:04.936Z,952.8172
2024-03-24T02:02:07.946Z,952.8339
2024-03-24T02:03:11.023Z,952.8289
2024-03-24T02:04:14.132Z,952.7894
2024-03-24T02:05:17.088Z,952.7617
2024-03-24T02:06:20.131Z,952.7667
2024-03-24T02:07:23.166Z,952.7400
2024-03-24T02:08:26.190Z,952.7333
2024-03-24T02:09:29.234Z,952.7194
2024-03-24T02:10:32.275Z,952.7011
2024-03-24T02:11:35.318Z,952.6989
2024-03-24T02:12:38.312Z,952.6866
2024-03-24T02:13:41.426Z,952.7050
2024-03-24T02:14:44.441Z,952.6861
2024-03-24T02:15:47.467Z,952.6861
2024-03-24T02:16:50.535Z,952.6861
2024-03-24T02:17:57.815Z,952.6811
2024-03-24T02:18:55.646Z,952.6775
2024-03-24T02:19:58.644Z,952.6705
2024-03-24T02:21:01.726Z,952.6594
2024-03-24T02:22:04.755Z,952.6672
2024-03-24T02:23:07.914Z,952.6517
2024-03-24T02:24:10.907Z,952.6439
2024-03-24T02:25:13.920Z,952.6284
2024-03-24T02:26:17.267Z,952.6161
2024-03-24T02:27:20.344Z,952.6055
2024-03-24T02:28:23.384Z,952.6322
2024-03-24T02:29:26.674Z,952.6689
2024-03-24T02:30:26.588Z,952.6794
2024-03-24T02:31:29.577Z,952.6639
2024-03-24T02:32:32.669Z,952.6561
2024-03-24T02:33:35.703Z,952.6428
2024-03-24T02:34:38.723Z,952.6155
2024-03-24T02:35:41.726Z,952.6255
2024-03-24T02:36:44.753Z,952.6228
2024-03-24T02:37:47.799Z,952.6044
2024-03-24T02:38:50.844Z,952.6011
2024-03-24T02:39:53.952Z,952.5967
2024-03-24T02:40:56.985Z,952.5806
2024-03-24T02:42:00.072Z,952.5533
2024-03-24T02:43:03.109Z,952.5555
2024-03-24T02:44:06.149Z,952.5533
2024-03-24T02:45:09.244Z,952.5344
2024-03-24T02:46:12.273Z,952.5511
2024-03-24T02:47:15.488Z,952.5350
2024-03-24T02:48:18.532Z,952.5117
2024-03-24T02:49:21.554Z,952.5095
2024-03-24T02:50:24.586Z,952.4939
2024-03-24T02:51:27.906Z,952.4628
2024-03-24T02:52:30.993Z,952.4456
2024-03-24T02:53:34.068Z,952.4495
2024-03-24T02:54:37.136Z,952.4600
2024-03-24T02:55:40.136Z,952.4561
2024-03-24T02:56:43.154Z,952.4517
2024-03-24T02:57:46.353Z,952.4561
2024-03-24T02:58:49.351Z,952.4506
2024-03-24T02:59:52.617Z,952.4322
2024-03-24T03:00:55.624Z,952.4333
2024-03-24T03:01:58.677Z,952.4105
2024-03-24T03:03:01.712Z,952.4189
2024-03-24T03:04:04.708Z,952.3856
2024-03-24T03:05:07.811Z,952.3716
2024-03-24T03:06:11.170Z,952.3745
2024-03-24T03:07:14.174Z,952.3789
2024-03-24T03:08:17.195Z,952.3811
2024-03-24T03:09:20.285Z,952.3745
2024-03-24T03:10:23.324Z,952.3722
2024-03-24T03:11:26.341Z,952.3961
2024-03-24T03:12:29.421Z,952.3872
2024-03-24T03:13:32.409Z,952.3845
2024-03-24T03:14:35.478Z,952.3872
2024-03-24T03:15:38.687Z,952.3834
2024-03-24T03:16:41.692Z,952.3884
2024-03-24T03:17:44.673Z,952.3956
2024-03-24T03:18:47.963Z,952.3789
2024-03-24T03:19:50.990Z,952.3750
2024-03-24T03:20:54.043Z,952.4039
2024-03-24T03:21:57.042Z,952.4050
2024-03-24T03:23:00.144Z,952.3845
2024-03-24T03:24:03.159Z,952.3784
2024-03-24T03:25:06.205Z,952.4089
2024-03-24T03:26:09.240Z,952.4355
2024-03-24T03:27:12.229Z,952.3917
2024-03-24T03:28:15.333Z,952.3672
2024-03-24T03:29:18.364Z,952.3639
2024-03-24T03:30:21.443Z,952.3589
2024-03-24T03:31:24.443Z,952.3589
2024-03-24T03:32:27.498Z,952.3522
2024-03-24T03:33:30.555Z,952.3661
2024-03-24T03:34:33.565Z,952.3745
2024-03-24T03:35:36.604Z,952.3945
2024-03-24T03:36:39.640Z,952.4522
2024-03-24T03:37:42.735Z,952.5161
2024-03-24T03:38:45.818Z,952.5689
2024-03-24T03:39:48.882Z,952.5900
2024-03-24T03:40:51.901Z,952.5922
2024-03-24T03:41:55.166Z,952.6044
2024-03-24T03:42:58.189Z,952.6166
2024-03-24T03:44:01.255Z,952.6061
2024-03-24T03:45:04.281Z,952.5578
2024-03-24T03:46:07.320Z,952.5411
2024-03-24T03:47:10.306Z,952.5278
2024-03-24T03:48:13.398Z,952.5189
2024-03-24T03:49:16.523Z,952.5106
2024-03-24T03:50:19.574Z,952.4855
2024-03-24T03:51:22.618Z,952.5045
2024-03-24T03:52:25.668Z,952.5050
2024-03-24T03:53:28.686Z,952.5067
2024-03-24T03:54:31.731Z,952.4867
2024-03-24T03:55:34.750Z,952.4355
2024-03-24T03:56:37.861Z,952.4511
2024-03-24T03:57:40.867Z,952.4644
2024-03-24T03:58:43.891Z,952.4422
2024-03-24T03:59:46.987Z,952.4178
2024-03-24T04:00:49.949Z,952.4200
2024-03-24T04:01:52.931Z,952.4717
2024-03-24T04:02:55.972Z,952.4644
2024-03-24T04:03:58.942Z,952.4717
2024-03-24T04:05:02.044Z,952.4372
2024-03-24T04:06:05.067Z,952.4000
2024-03-24T04:07:08.119Z,952.3845
2024-03-24T04:08:11.186Z,952.3906
2024-03-24T04:09:14.213Z,952.4216
2024-03-24T04:10:17.395Z,952.4044
2024-03-24T04:11:20.420Z,952.3784
2024-03-24T04:12:23.472Z,952.3594
2024-03-24T04:13:26.775Z,952.3489
2024-03-24T04:14:29.795Z,952.3622
2024-03-24T04:15:32.781Z,952.3661
2024-03-24T04:16:35.970Z,952.3700
2024-03-24T04:17:38.953Z,952.3878
2024-03-24T04:18:42.023Z,952.3983
2024-03-24T04:19:45.028Z,952.3934
2024-03-24T04:20:48.294Z,952.3972
2024-03-24T04:21:51.343Z,952.3950
2024-03-24T04:22:54.373Z,952.3972
2024-03-24T04:23:57.423Z,952.4044
2024-03-24T04:25:00.528Z,952.4128
2024-03-24T04:26:03.525Z,952.4128
2024-03-24T04:27:06.544Z,952.4328
2024-03-24T04:28:09.557Z,952.4528
2024-03-24T04:29:12.562Z,952.4828
2024-03-24T04:30:15.682Z,952.4950
2024-03-24T04:31:18.689Z,952.5050
2024-03-24T04:32:21.745Z,952.5289
2024-03-24T04:33:24.755Z,952.5478
2024-03-24T04:34:27.766Z,952.5522
2024-03-24T04:35:30.857Z,952.5528
2024-03-24T04:36:34.043Z,952.5400
2024-03-24T04:37:37.046Z,952.5156
2024-03-24T04:38:40.059Z,952.4800
2024-03-24T04:39:43.326Z,952.4517
2024-03-24T04:40:46.396Z,952.4445
2024-03-24T04:41:49.475Z,952.4400
2024-03-24T04:42:52.643Z,952.4366
2024-03-24T04:43:55.782Z,952.4272
2024-03-24T04:44:58.843Z,952.4422
2024-03-24T04:46:01.894Z,952.4450
2024-03-24T04:47:04.919Z,952.4361
2024-03-24T04:48:07.955Z,952.4139
2024-03-24T04:49:11.016Z,952.4055
2024-03-24T04:50:14.042Z,952.3917
2024-03-24T04:51:17.143Z,952.3906
2024-03-24T04:52:20.184Z,952.3745
2024-03-24T04:53:23.252Z,952.3356
2024-03-24T04:54:26.515Z,952.2961
2024-03-24T04:55:29.586Z,952.2595
2024-03-24T04:56:32.612Z,952.2200
2024-03-24T04:57:35.632Z,952.2139
2024-03-24T04:58:38.691Z,952.2361
2024-03-24T04:59:41.784Z,952.2478
2024-03-24T05:00:44.868Z,952.2450
2024-03-24T05:01:47.884Z,952.2428
2024-03-24T05:02:50.943Z,952.2611
2024-03-24T05:03:53.961Z,952.2944
2024-03-24T05:04:56.956Z,952.3195
2024-03-24T05:06:00.049Z,952.3306
2024-03-24T05:07:03.088Z,952.3417
2024-03-24T05:08:06.114Z,952.3472
2024-03-24T05:09:09.123Z,952.3633
2024-03-24T05:10:12.219Z,952.3728
2024-03-24T05:11:15.203Z,952.3739
2024-03-24T05:12:18.351Z,952.3728
2024-03-24T05:13:21.343Z,952.3889
2024-03-24T05:14:24.387Z,952.3934
2024-03-24T05:15:27.455Z,952.4017
2024-03-24T05:16:30.489Z,952.4272
2024-03-24T05:17:33.631Z,952.4400
2024-03-24T05:18:36.800Z,952.4395
2024-03-24T05:19:39.834Z,952.4278
2024-03-24T05:20:42.869Z,952.4339
2024-03-24T05:21:45.935Z,952.4467
2024-03-24T05:22:49.036Z,952.4778
2024-03-24T05:23:52.104Z,952.5005
2024-03-24T05:24:55.362Z,952.5106
2024-03-24T05:25:58.365Z,952.5328
2024-03-24T05:27:01.465Z,952.5533
2024-03-24T05:28:04.543Z,952.5767
2024-03-24T05:29:07.572Z,952.5978
2024-03-24T05:30:10.643Z,952.6016
2024-03-24T05:31:13.919Z,952.6133
2024-03-24T05:32:16.952Z,952.6439
2024-03-24T05:33:19.992Z,952.6861
2024-03-24T05:34:23.032Z,952.7289
2024-03-24T05:35:26.068Z,952.7795
2024-03-24T05:36:28.561Z,952.8033
2024-03-24T05:37:30.997Z,952.8217
2024-03-24T05:38:33.593Z,952.8356
2024-03-24T05:39:36.049Z,952.8750
2024-03-24T05:40:38.533Z,952.9094
2024-03-24T05:41:41.109Z,952.9050
2024-03-24T05:42:43.624Z,952.8917
2024-03-24T05:43:46.237Z,952.8722
2024-03-24T05:44:48.727Z,952.8811
2024-03-24T05:45:51.191Z,952.9100
2024-03-24T05:46:53.771Z,952.9189
2024-03-24T05:47:56.225Z,952.9261
2024-03-24T05:48:58.701Z,952.8956
2024-03-24T05:50:01.198Z,952.9117
2024-03-24T05:51:03.699Z,952.9378
2024-03-24T05:52:06.161Z,952.9689
2024-03-24T05:53:08.808Z,952.9767
2024-03-24T05:54:11.315Z,952.9644
2024-03-24T05:55:13.756Z,952.9578
2024-03-24T05:56:16.307Z,952.9384
2024-03-24T05:57:18.792Z,952.9511
2024-03-24T05:58:21.255Z,952.9772
2024-03-24T05:59:23.896Z,953.0016
2024-03-24T06:00:26.505Z,952.9950
2024-03-24T06:01:28.922Z,953.0095
2024-03-24T06:02:31.360Z,953.0706
2024-03-24T06:03:34.087Z,953.0911
2024-03-24T06:04:36.482Z,953.0706
2024-03-24T06:05:38.900Z,953.0711
2024-03-24T06:06:41.353Z,953.0883
2024-03-24T06:07:43.811Z,953.0972
2024-03-24T06:08:46.375Z,953.0761
2024-03-24T06:09:48.791Z,953.1284
2024-03-24T06:10:51.514Z,953.1389
2024-03-24T06:11:54.033Z,953.1705
2024-03-24T06:12:56.440Z,953.1733
2024-03-24T06:13:58.960Z,953.1761
2024-03-24T06:15:01.382Z,953.1744
2024-03-24T06:16:03.832Z,953.2328
2024-03-24T06:17:06.257Z,953.2283
2024-03-24T06:18:08.945Z,953.2656
2024-03-24T06:19:14.213Z,953.2433
2024-03-24T06:20:13.735Z,953.2159
2024-03-24T06:21:16.157Z,953.1967
2024-03-24T06:22:18.574Z,953.2056
2024-03-24T06:23:21.022Z,953.1950
2024-03-24T06:24:23.461Z,953.2478
2024-03-24T06:25:25.911Z,953.2416
2024-03-24T06:26:28.474Z,953.2589
2024-03-24T06:27:30.925Z,953.2761
2024-03-24T06:28:33.603Z,953.2894
2024-03-24T06:29:36.047Z,953.3161
2024-03-24T06:30:38.667Z,953.3078
2024-03-24T06:31:43.842Z,953.3367
2024-03-24T06:32:44.808Z,953.3459
2024-03-24T06:33:47.277Z,953.3583
2024-03-24T06:34:49.713Z,953.3395
2024-03-24T06:35:52.311Z,953.3766
2024-03-24T06:36:54.718Z,953.3834
2024-03-24T06:37:57.179Z,953.4111
2024-03-24T06:38:59.604Z,953.4445
2024-03-24T06:40:02.031Z,953.4511
2024-03-24T06:41:04.479Z,953.4506
2024-03-24T06:42:07.027Z,953.5034
2024-03-24T06:43:09.521Z,953.5011
2024-03-24T06:44:11.914Z,953.5461
2024-03-24T06:45:14.382Z,953.5156
2024-03-24T06:46:16.958Z,953.5455
2024-03-24T06:47:19.398Z,953.5789
2024-03-24T06:48:21.865Z,953.6205
2024-03-24T06:49:24.303Z,953.6805
2024-03-24T06:50:26.874Z,953.7133
2024-03-24T06:51:29.312Z,953.7511
2024-03-24T06:52:32.040Z,953.7606
2024-03-24T06:53:34.800Z,953.7561
2024-03-24T06:54:37.370Z,953.7634
2024-03-24T06:55:39.794Z,953.7244
2024-03-24T06:56:42.554Z,953.7250
2024-03-24T06:57:45.284Z,953.7300
2024-03-24T06:58:47.745Z,953.7194
2024-03-24T06:59:50.182Z,953.7122
2024-03-24T07:00:52.618Z,953.7189
2024-03-24T07:01:55.200Z,953.7172
2024-03-24T07:02:57.638Z,953.6911
2024-03-24T07:04:00.299Z,953.6989
2024-03-24T07:05:02.760Z,953.6811
2024-03-24T07:06:05.429Z,953.7100
2024-03-24T07:07:07.842Z,953.7466
2024-03-24T07:08:10.279Z,953.7645
2024-03-24T07:09:12.742Z,953.7394
2024-03-24T07:10:15.183Z,953.7172
2024-03-24T07:11:17.762Z,953.7089
2024-03-24T07:12:20.189Z,953.7061
2024-03-24T07:13:22.830Z,953.6878
2024-03-24T07:14:25.272Z,953.7122
2024-03-24T07:15:27.741Z,953.7539
2024-03-24T07:16:30.199Z,953.7145
2024-03-24T07:17:32.621Z,953.6805
2024-03-24T07:18:35.041Z,953.6550
2024-03-24T07:19:37.601Z,953.6144
2024-03-24T07:20:40.040Z,953.6194
2024-03-24T07:21:42.448Z,953.6567
2024-03-24T07:22:44.940Z,953.6978
2024-03-24T07:23:47.385Z,953.7205
2024-03-24T07:24:49.930Z,953.7739
2024-03-24T07:25:52.632Z,953.7422
2024-03-24T07:26:55.133Z,953.7539
2024-03-24T07:27:58.069Z,953.7200
2024-03-24T07:29:01.124Z,953.7361
2024-03-24T07:30:04.161Z,953.7661
2024-03-24T07:31:07.180Z,953.7584
2024-03-24T07:32:10.231Z,953.7844
2024-03-24T07:33:13.410Z,953.7883
2024-03-24T07:34:16.434Z,953.7939
2024-03-24T07:35:19.486Z,953.7955
2024-03-24T07:36:22.509Z,953.8228
2024-03-24T07:37:25.520Z,953.8184
2024-03-24T07:38:28.543Z,953.8139
2024-03-24T07:39:31.576Z,953.8356
2024-03-24T07:40:34.871Z,953.9022
2024-03-24T07:41:37.914Z,953.8745
2024-03-24T07:42:43.515Z,953.8522
2024-03-24T07:43:44.061Z,953.8847
2024-03-24T07:44:47.111Z,953.9100
2024-03-24T07:45:50.127Z,953.9011
2024-03-24T07:46:53.226Z,953.8950
2024-03-24T07:47:56.258Z,953.9439
2024-03-24T07:48:59.298Z,953.9944
2024-03-24T07:50:02.335Z,954.0122
2024-03-24T07:51:05.342Z,954.0444
2024-03-24T07:52:08.361Z,954.0339
2024-03-24T07:53:11.390Z,954.0344
2024-03-24T07:54:14.526Z,954.0272
2024-03-24T07:55:17.584Z,954.0089
2024-03-24T07:56:20.557Z,954.0761
2024-03-24T07:57:23.831Z,954.1111
2024-03-24T07:58:27.053Z,954.0994
2024-03-24T07:59:30.198Z,954.0845
2024-03-24T08:00:33.253Z,954.1000
2024-03-24T08:01:36.305Z,954.1189
2024-03-24T08:02:39.387Z,954.1200
2024-03-24T08:03:42.381Z,954.1295
2024-03-24T08:04:45.471Z,954.1467
2024-03-24T08:05:48.548Z,954.1539
2024-03-24T08:06:51.630Z,954.1506
2024-03-24T08:07:56.440Z,954.1205
2024-03-24T08:08:56.422Z,954.1229
2024-03-24T08:09:59.651Z,954.1816
2024-03-24T08:11:02.703Z,954.1683
2024-03-24T08:12:05.831Z,954.1417
2024-03-24T08:13:08.841Z,954.1650
2024-03-24T08:14:11.936Z,954.2244
2024-03-24T08:15:14.953Z,954.2039
2024-03-24T08:16:17.965Z,954.1989
2024-03-24T08:17:21.267Z,954.2289
2024-03-24T08:18:24.301Z,954.2316
2024-03-24T08:19:27.341Z,954.2700
2024-03-24T08:20:30.431Z,954.2545
2024-03-24T08:21:33.522Z,954.2439
2024-03-24T08:22:36.804Z,954.2706
2024-03-24T08:23:39.909Z,954.3039
2024-03-24T08:24:42.928Z,954.2667
2024-03-24T08:25:45.896Z,954.2833
2024-03-24T08:26:48.968Z,954.3300
2024-03-24T08:27:51.981Z,954.3306
2024-03-24T08:28:55.007Z,954.3100
2024-03-24T08:29:58.052Z,954.3039
2024-03-24T08:31:01.061Z,954.3400
2024-03-24T08:32:04.074Z,954.2961
2024-03-24T08:33:07.181Z,954.3128
2024-03-24T08:34:10.220Z,954.2905
2024-03-24T08:35:13.221Z,954.3044
2024-03-24T08:36:16.629Z,954.3189
2024-03-24T08:37:19.696Z,954.3272
2024-03-24T08:38:22.869Z,954.3461
2024-03-24T08:39:25.889Z,954.3528
2024-03-24T08:40:31.120Z,954.3500
2024-03-24T08:41:31.911Z,954.4206
2024-03-24T08:42:34.904Z,954.4500
2024-03-24T08:43:37.899Z,954.4456
2024-03-24T08:44:40.958Z,954.4744
2024-03-24T08:45:43.994Z,954.4467
2024-03-24T08:46:47.043Z,954.4422
2024-03-24T08:47:50.058Z,954.4434
2024-03-24T08:48:53.087Z,954.4378
2024-03-24T08:49:56.147Z,954.4395
2024-03-24T08:50:59.126Z,954.4583
2024-03-24T08:52:02.253Z,954.4800
2024-03-24T08:53:05.258Z,954.4561
2024-03-24T08:54:08.567Z,954.5072
2024-03-24T08:55:11.704Z,954.5200
2024-03-24T08:56:14.700Z,954.5450
2024-03-24T08:57:17.736Z,954.5200
2024-03-24T08:58:20.800Z,954.5544
2024-03-24T08:59:23.996Z,954.5100
2024-03-24T09:00:27.190Z,954.4878
2024-03-24T09:01:30.283Z,954.5161
2024-03-24T09:02:33.503Z,954.4928
2024-03-24T09:03:36.600Z,954.4205
2024-03-24T09:04:39.690Z,954.3889
2024-03-24T09:05:42.756Z,954.3850
2024-03-24T09:06:45.769Z,954.3828
2024-03-24T09:07:48.817Z,954.3544
2024-03-24T09:08:51.865Z,954.4006
2024-03-24T09:09:54.893Z,954.4289
2024-03-24T09:10:57.888Z,954.4389
2024-03-24T09:12:01.046Z,954.4556
2024-03-24T09:13:04.060Z,954.4122
2024-03-24T09:14:07.076Z,954.4161
2024-03-24T09:15:10.267Z,954.4183
2024-03-24T09:16:13.239Z,954.4022
2024-03-24T09:17:16.392Z,954.3761
2024-03-24T09:18:19.495Z,954.3422
2024-03-24T09:19:22.548Z,954.4178
2024-03-24T09:20:25.620Z,954.3378
2024-03-24T09:21:28.643Z,954.3884
2024-03-24T09:22:31.657Z,954.3517
2024-03-24T09:23:34.706Z,954.3806
2024-03-24T09:24:37.752Z,954.4067
2024-03-24T09:25:40.772Z,954.3895
2024-03-24T09:26:43.822Z,954.3467
2024-03-24T09:27:46.869Z,954.3206
2024-03-24T09:28:49.889Z,954.3395
2024-03-24T09:29:52.989Z,954.3594
2024-03-24T09:30:56.033Z,954.4372
2024-03-24T09:31:59.075Z,954.4495
2024-03-24T09:33:02.092Z,954.5183
2024-03-24T09:34:05.354Z,954.5294
2024-03-24T09:35:13.272Z,954.5250
2024-03-24T09:36:10.583Z,954.5563
2024-03-24T09:37:13.575Z,954.4789
2024-03-24T09:38:16.856Z,954.4667
2024-03-24T09:39:19.962Z,954.4100
2024-03-24T09:40:23.054Z,954.4772
2024-03-24T09:41:26.096Z,954.4966
2024-03-24T09:42:29.100Z,954.4417
2024-03-24T09:43:32.160Z,954.4783
2024-03-24T09:44:35.234Z,954.4622
2024-03-24T09:45:38.260Z,954.4495
2024-03-24T09:46:41.242Z,954.4355
2024-03-24T09:47:44.301Z,954.4533
2024-03-24T09:48:47.301Z,954.4572
2024-03-24T09:49:50.319Z,954.4539
2024-03-24T09:50:53.393Z,954.4450
2024-03-24T09:51:56.452Z,954.4467
2024-03-24T09:52:59.489Z,954.4539
2024-03-24T09:54:02.553Z,954.4339
2024-03-24T09:55:05.580Z,954.4205
2024-03-24T09:56:08.608Z,954.4278
2024-03-24T09:57:11.663Z,954.4133
2024-03-24T09:58:17.214Z,954.3822
2024-03-24T09:59:17.462Z,954.3671
2024-03-24T10:00:20.724Z,954.3828
2024-03-24T10:01:23.826Z,954.3383
2024-03-24T10:02:26.845Z,954.3850
2024-03-24T10:03:29.922Z,954.3306
2024-03-24T10:04:32.922Z,954.3678
2024-03-24T10:05:35.981Z,954.4089
2024-03-24T10:06:38.996Z,954.4078
2024-03-24T10:07:42.053Z,954.3672
2024-03-24T10:08:45.104Z,954.3555
2024-03-24T10:09:48.187Z,954.3339
2024-03-24T10:10:51.163Z,954.3544
2024-03-24T10:11:54.314Z,954.3156
2024-03-24T10:12:57.334Z,954.3156
2024-03-24T10:14:00.364Z,954.3245
2024-03-24T10:15:03.389Z,954.3395
2024-03-24T10:16:06.400Z,954.3834
2024-03-24T10:17:09.433Z,954.3806
2024-03-24T10:18:09.652Z,954.3682
2024-03-24T10:19:12.697Z,954.3633
2024-03-24T10:20:15.746Z,954.3589
2024-03-24T10:21:18.741Z,954.4111
2024-03-24T10:22:22.090Z,954.4217
2024-03-24T10:23:25.100Z,954.4266
2024-03-24T10:24:28.140Z,954.4650
2024-03-24T10:25:31.198Z,954.4122
2024-03-24T10:26:34.269Z,954.3911
2024-03-24T10:27:37.297Z,954.3766
2024-03-24T10:28:40.313Z,954.3939
2024-03-24T10:29:43.429Z,954.3694
2024-03-24T10:30:46.445Z,954.3800
2024-03-24T10:31:52.731Z,954.3778
2024-03-24T10:32:52.843Z,954.3611
2024-03-24T10:33:55.848Z,954.3317
2024-03-24T10:34:58.858Z,954.3189
2024-03-24T10:36:02.032Z,954.3622
2024-03-24T10:37:05.041Z,954.3395
2024-03-24T10:38:08.189Z,954.2833
2024-03-24T10:39:11.242Z,954.3066
2024-03-24T10:40:14.371Z,954.2867
2024-03-24T10:41:17.420Z,954.3100
2024-03-24T10:42:20.459Z,954.3195
2024-03-24T10:43:23.525Z,954.3028
2024-03-24T10:44:26.502Z,954.3145
2024-03-24T10:45:29.542Z,954.2878
2024-03-24T10:46:32.579Z,954.2861
2024-03-24T10:47:35.712Z,954.2750
2024-03-24T10:48:38.730Z,954.2939
2024-03-24T10:49:41.789Z,954.2472
2024-03-24T10:50:44.814Z,954.2500
2024-03-24T10:51:47.855Z,954.2889
2024-03-24T10:52:53.250Z,954.2745
2024-03-24T10:53:53.318Z,954.2935
2024-03-24T10:54:56.348Z,954.2516
2024-03-24T10:55:59.379Z,954.2811
2024-03-24T10:57:02.394Z,954.2817
2024-03-24T10:58:05.413Z,954.2634
2024-03-24T10:59:11.307Z,954.2972
2024-03-24T11:00:08.717Z,954.2531
2024-03-24T11:01:11.999Z,954.2045
2024-03-24T11:02:15.077Z,954.2333
2024-03-24T11:03:18.131Z,954.2300
2024-03-24T11:04:21.149Z,954.2617
2024-03-24T11:05:24.160Z,954.2256
2024-03-24T11:06:27.180Z,954.3066
2024-03-24T11:07:30.246Z,954.4056
2024-03-24T11:08:33.269Z,954.4456
2024-03-24T11:09:36.289Z,954.4233
2024-03-24T11:10:39.346Z,954.5156
2024-03-24T11:11:42.478Z,954.4722
2024-03-24T11:12:45.609Z,954.4361
2024-03-24T11:13:48.778Z,954.3522
2024-03-24T11:14:51.880Z,954.2800
2024-03-24T11:15:54.904Z,954.1789
2024-03-24T11:16:57.408Z,954.1611
2024-03-24T11:17:59.971Z,954.1461
2024-03-24T11:19:02.420Z,954.1228
2024-03-24T11:20:04.886Z,954.0750
2024-03-24T11:21:07.347Z,954.0627
2024-03-24T11:22:09.772Z,954.0667
2024-03-24T11:23:12.292Z,954.0667
2024-03-24T11:24:14.747Z,954.0933
2024-03-24T11:25:17.350Z,954.1122
2024-03-24T11:26:19.898Z,954.0856
2024-03-24T11:27:22.926Z,954.0634
2024-03-24T11:28:23.083Z,954.0435
2024-03-24T11:29:26.177Z,954.0561
2024-03-24T11:30:29.177Z,954.0872
2024-03-24T11:31:32.167Z,954.0711
2024-03-24T11:32:35.178Z,954.0956
2024-03-24T11:33:38.220Z,954.1083
2024-03-24T11:34:41.248Z,954.1228
2024-03-24T11:35:44.340Z,954.1272
2024-03-24T11:36:47.375Z,954.0911
2024-03-24T11:37:50.445Z,954.0883
2024-03-24T11:38:53.418Z,954.0778
2024-03-24T11:39:56.495Z,954.0795
2024-03-24T11:40:59.539Z,954.0394
2024-03-24T11:42:02.592Z,954.0517
2024-03-24T11:43:05.619Z,954.0961
2024-03-24T11:44:08.645Z,954.0756
2024-03-24T11:45:11.727Z,954.0405
2024-03-24T11:46:14.717Z,954.0583
2024-03-24T11:47:17.778Z,953.9722
2024-03-24T11:48:20.829Z,953.9811
2024-03-24T11:49:23.849Z,954.0256
2024-03-24T11:50:27.239Z,954.0245
2024-03-24T11:51:30.262Z,954.0672
2024-03-24T11:52:33.366Z,953.9939
2024-03-24T11:53:36.395Z,953.9717
2024-03-24T11:54:39.420Z,953.9395
2024-03-24T11:55:42.419Z,953.9689
2024-03-24T11:56:45.465Z,953.9461
2024-03-24T11:57:48.529Z,953.9456
2024-03-24T11:58:51.540Z,953.9911
2024-03-24T11:59:54.576Z,953.9056
2024-03-24T12:00:57.628Z,953.7906
2024-03-24T12:02:00.662Z,953.8172
2024-03-24T12:03:03.747Z,953.8145
2024-03-24T12:04:06.736Z,953.7905
2024-03-24T12:05:09.748Z,953.7383
2024-03-24T12:06:12.798Z,953.7117
2024-03-24T12:07:15.898Z,953.7017
2024-03-24T12:08:18.908Z,953.7255
2024-03-24T12:09:21.921Z,953.7056
2024-03-24T12:10:24.987Z,953.7344
2024-03-24T12:11:28.027Z,953.7089
2024-03-24T12:12:31.067Z,953.6678
2024-03-24T12:13:34.116Z,953.6739
2024-03-24T12:14:37.146Z,953.6183
2024-03-24T12:15:40.171Z,953.6028
2024-03-24T12:16:43.247Z,953.5861
2024-03-24T12:17:46.287Z,953.5872
2024-03-24T12:18:49.306Z,953.5706